Time;durP1;ratioP1;P1;durP2;ratioP2;P2;SDS_P1;SDS_P2;PMS_P1;PMS_P2;Temp;Humidity;BMP_temperature;BMP_pressure;BME280_temperature;BME280_humidity;BME280_pressure;Samples;Min_cycle;Max_cycle;Signal;HPM_P1;HPM_P2
2022/09/25 00:01:26;;;;;;;32.30;25.83;;;12.80;99.90;;;;;;5108191;28;20207;-78
2022/09/25 00:03:52;;;;;;;50.87;24.13;;;12.80;99.90;;;;;;5095971;28;20181;-78
2022/09/25 00:06:22;;;;;;;29.50;24.63;;;12.80;99.90;;;;;;5097296;28;20226;-77
2022/09/25 00:08:48;;;;;;;32.07;24.37;;;12.80;99.90;;;;;;5099095;28;20212;-77
2022/09/25 00:11:17;;;;;;;39.07;25.50;;;12.80;99.90;;;;;;5094236;28;20361;-79
2022/09/25 00:13:44;;;;;;;42.70;23.87;;;12.80;99.90;;;;;;5094419;28;20188;-79
2022/09/25 00:16:13;;;;;;;43.50;28.57;;;12.80;99.90;;;;;;5095061;28;20185;-79
2022/09/25 00:21:29;;;;;;;59.47;27.07;;;12.70;99.90;;;;;;5095013;28;20187;-79
2022/09/25 00:24:05;;;;;;;50.20;45.20;;;12.70;99.90;;;;;;5094992;28;20189;-80
2022/09/25 00:26:33;;;;;;;66.43;51.13;;;12.70;99.90;;;;;;5093492;28;20291;-79
2022/09/25 00:29:02;;;;;;;80.40;73.17;;;12.70;99.90;;;;;;5092977;28;20220;-78
2022/09/25 00:31:29;;;;;;;63.60;57.33;;;12.70;99.90;;;;;;5093103;28;20629;-79
2022/09/25 00:34:00;;;;;;;113.83;72.67;;;12.70;99.90;;;;;;5092996;28;20597;-79
2022/09/25 00:36:26;;;;;;;70.27;52.93;;;12.70;99.90;;;;;;5092864;28;20213;-78
2022/09/25 00:38:53;;;;;;;64.67;47.13;;;12.80;99.90;;;;;;5094104;28;20204;-80
2022/09/25 00:41:22;;;;;;;65.27;51.07;;;12.80;99.90;;;;;;5094690;28;20196;-80
2022/09/25 00:43:51;;;;;;;156.10;53.03;;;12.80;99.90;;;;;;5095574;28;20187;-80
2022/09/25 00:46:23;;;;;;;86.73;44.33;;;12.80;99.90;;;;;;5096132;28;20287;-80
2022/09/25 00:48:56;;;;;;;84.77;46.00;;;12.80;99.90;;;;;;5104717;28;20205;-79
2022/09/25 00:51:28;;;;;;;58.00;46.33;;;12.80;99.90;;;;;;5099723;28;20184;-79
2022/09/25 00:54:00;;;;;;;99.80;44.77;;;12.80;99.90;;;;;;5098608;28;20318;-80
2022/09/25 00:56:30;;;;;;;81.77;59.77;;;12.70;99.90;;;;;;5096046;28;20185;-80
2022/09/25 00:58:56;;;;;;;103.23;54.27;;;12.70;99.90;;;;;;5095026;28;20200;-79
2022/09/25 01:01:22;;;;;;;90.87;81.40;;;12.70;99.90;;;;;;5090911;28;20180;-78
2022/09/25 01:03:47;;;;;;;94.40;82.27;;;12.60;99.90;;;;;;5113693;28;20629;-79
2022/09/25 01:06:15;;;;;;;92.27;82.47;;;12.60;99.90;;;;;;5113656;28;20277;-79
2022/09/25 01:08:44;;;;;;;89.83;83.27;;;12.60;99.90;;;;;;5113990;28;20215;-79
2022/09/25 01:11:09;;;;;;;104.23;95.43;;;12.60;99.90;;;;;;5113366;28;20169;-79
2022/09/25 01:13:35;;;;;;;97.93;91.03;;;12.50;99.90;;;;;;5112640;28;20219;-79
2022/09/25 01:16:19;;;;;;;101.40;75.43;;;12.50;99.90;;;;;;5094815;28;20191;-79
2022/09/25 01:19:21;;;;;;;45.87;41.87;;;12.40;99.90;;;;;;5096353;28;20208;-77
2022/09/25 01:22:03;;;;;;;29.23;26.33;;;12.30;99.90;;;;;;5101743;28;20181;-79
2022/09/25 01:24:55;;;;;;;20.17;15.10;;;12.30;99.90;;;;;;5093376;28;20838;-78
2022/09/25 01:27:36;;;;;;;23.40;15.40;;;12.30;99.90;;;;;;5094875;28;20184;-79
2022/09/25 01:30:06;;;;;;;16.93;15.03;;;12.30;99.90;;;;;;5093571;28;20200;-79
2022/09/25 01:32:50;;;;;;;18.00;15.33;;;12.30;99.90;;;;;;5092419;28;20188;-79
2022/09/25 01:35:36;;;;;;;18.03;15.47;;;12.30;99.90;;;;;;5091638;28;20177;-79
2022/09/25 01:38:06;;;;;;;19.57;15.83;;;12.30;99.90;;;;;;5091745;28;20234;-79
2022/09/25 01:40:57;;;;;;;19.07;15.60;;;12.30;99.90;;;;;;5093132;28;20180;-79
2022/09/25 01:43:46;;;;;;;20.33;16.63;;;12.30;99.90;;;;;;5098883;28;20180;-78
2022/09/25 01:46:14;;;;;;;25.70;17.20;;;12.30;99.90;;;;;;5095507;28;20237;-80
2022/09/25 01:48:43;;;;;;;22.10;17.00;;;12.30;99.90;;;;;;5095786;28;20250;-79
2022/09/25 01:51:31;;;;;;;20.13;17.17;;;12.30;99.90;;;;;;5103099;28;20352;-78
2022/09/25 01:54:03;;;;;;;19.57;15.63;;;12.20;99.90;;;;;;5096753;28;20220;-79
2022/09/25 01:57:10;;;;;;;20.07;18.00;;;12.20;99.90;;;;;;5103154;28;20188;-78
2022/09/25 02:00:00;;;;;;;20.07;18.27;;;12.20;99.90;;;;;;5031904;28;20210;-79
2022/09/25 02:02:33;;;;;;;19.80;17.70;;;12.20;99.90;;;;;;5068835;28;20223;-79
2022/09/25 02:05:06;;;;;;;19.47;17.40;;;12.20;99.90;;;;;;5073163;28;20638;-78
2022/09/25 02:07:42;;;;;;;20.23;18.10;;;12.20;99.90;;;;;;5075756;28;20208;-78
2022/09/25 02:10:13;;;;;;;25.27;21.13;;;12.30;99.90;;;;;;5073718;28;20216;-78
2022/09/25 02:12:46;;;;;;;25.67;23.13;;;12.40;99.90;;;;;;5080352;28;20188;-78
2022/09/25 02:15:27;;;;;;;25.77;22.60;;;12.30;99.90;;;;;;5099377;28;20219;-78
2022/09/25 02:20:55;;;;;;;22.33;20.03;;;12.20;99.90;;;;;;5094222;28;20203;-78
2022/09/25 02:23:37;;;;;;;21.67;19.37;;;12.30;99.90;;;;;;5091917;28;20218;-79
2022/09/25 02:26:13;;;;;;;22.20;19.60;;;12.30;99.90;;;;;;5093918;28;20208;-78
2022/09/25 02:28:39;;;;;;;20.03;17.93;;;12.20;99.90;;;;;;5099599;28;20735;-77
2022/09/25 02:31:08;;;;;;;21.00;19.00;;;12.20;99.90;;;;;;5096797;28;20265;-78
2022/09/25 02:33:35;;;;;;;19.13;17.13;;;12.20;99.90;;;;;;5092536;28;20294;-78
2022/09/25 02:36:03;;;;;;;19.67;17.80;;;12.30;99.90;;;;;;5097552;28;20302;-78
2022/09/25 02:38:32;;;;;;;20.47;18.60;;;12.30;99.90;;;;;;5097077;28;20209;-78
2022/09/25 02:41:28;;;;;;;22.53;20.63;;;12.30;99.90;;;;;;5095747;28;20181;-78
2022/09/25 02:44:14;;;;;;;23.77;21.47;;;12.30;99.90;;;;;;5076993;28;20185;-79
2022/09/25 02:46:49;;;;;;;22.27;20.27;;;12.30;99.90;;;;;;5063107;28;20228;-78
2022/09/25 02:49:28;;;;;;;22.27;20.30;;;12.30;99.90;;;;;;5087660;28;20205;-78
2022/09/25 02:52:01;;;;;;;24.87;22.57;;;12.30;99.90;;;;;;5089339;28;20198;-79
2022/09/25 02:54:35;;;;;;;24.10;21.53;;;12.30;99.90;;;;;;5096832;28;20192;-79
2022/09/25 02:57:14;;;;;;;30.30;22.23;;;12.30;99.90;;;;;;5095855;28;20180;-78
2022/09/25 02:59:54;;;;;;;30.83;21.77;;;12.30;99.90;;;;;;5095692;28;20201;-78
2022/09/25 03:02:22;;;;;;;24.53;21.90;;;12.30;99.90;;;;;;5096054;28;20179;-78
2022/09/25 03:04:50;;;;;;;22.77;20.70;;;12.30;99.90;;;;;;5094580;28;20211;-78
2022/09/25 03:07:17;;;;;;;26.33;23.90;;;12.30;99.90;;;;;;5094072;28;20251;-78
2022/09/25 03:09:46;;;;;;;25.80;23.60;;;12.30;99.90;;;;;;5094147;28;20354;-79
2022/09/25 03:12:13;;;;;;;25.47;23.17;;;12.30;99.90;;;;;;5093878;28;20177;-79
2022/09/25 03:14:39;;;;;;;25.27;22.97;;;12.30;99.90;;;;;;5093899;28;20192;-79
2022/09/25 03:17:07;;;;;;;29.17;26.67;;;12.30;99.90;;;;;;5095575;28;20210;-78
2022/09/25 03:19:35;;;;;;;26.33;24.00;;;12.30;99.90;;;;;;5095227;28;20205;-79
2022/09/25 03:22:01;;;;;;;19.93;18.10;;;12.30;99.90;;;;;;5093492;28;20625;-79
2022/09/25 03:24:27;;;;;;;22.13;20.23;;;12.30;99.90;;;;;;5095397;28;20188;-78
2022/09/25 03:26:54;;;;;;;25.33;23.27;;;12.30;99.90;;;;;;5106199;28;20223;-80
2022/09/25 03:29:20;;;;;;;21.93;20.03;;;12.30;99.90;;;;;;5110884;28;20193;-80
2022/09/25 03:31:46;;;;;;;17.07;15.47;;;12.30;99.90;;;;;;5097975;28;20173;-80
2022/09/25 03:34:14;;;;;;;16.20;14.60;;;12.30;99.90;;;;;;5096829;28;21143;-78
2022/09/25 03:36:41;;;;;;;19.47;16.63;;;12.40;99.90;;;;;;5095273;28;20190;-79
2022/09/25 03:39:09;;;;;;;29.93;27.50;;;12.40;99.90;;;;;;5095211;28;20207;-79
2022/09/25 03:41:35;;;;;;;55.77;52.33;;;12.40;99.90;;;;;;5093591;28;20177;-78
2022/09/25 03:44:02;;;;;;;46.33;43.23;;;12.40;99.90;;;;;;5094411;28;20177;-79
2022/09/25 03:46:30;;;;;;;16.77;15.07;;;12.50;99.90;;;;;;5095293;28;20216;-80
2022/09/25 03:48:57;;;;;;;15.43;13.83;;;12.40;99.90;;;;;;5094641;28;20193;-80
2022/09/25 03:51:24;;;;;;;16.73;15.03;;;12.40;99.90;;;;;;5094348;28;20208;-78
2022/09/25 03:53:52;;;;;;;17.07;14.70;;;12.40;99.90;;;;;;5095801;28;20260;-79
2022/09/25 03:56:21;;;;;;;19.00;17.00;;;12.40;99.90;;;;;;5095720;28;20184;-79
2022/09/25 03:58:48;;;;;;;26.73;24.63;;;12.50;99.90;;;;;;5094323;28;20203;-79
2022/09/25 04:01:15;;;;;;;53.53;49.80;;;12.50;99.90;;;;;;5093204;28;20273;-79
2022/09/25 04:03:46;;;;;;;134.47;126.63;;;12.50;99.90;;;;;;5093383;28;20185;-80
2022/09/25 04:06:17;;;;;;;142.37;133.47;;;12.50;99.90;;;;;;5094436;28;20208;-79
2022/09/25 04:08:43;;;;;;;87.90;80.97;;;12.60;99.90;;;;;;5092732;28;20257;-79
2022/09/25 04:11:10;;;;;;;42.47;38.53;;;12.60;99.90;;;;;;5114910;22;20259;-82
2022/09/25 04:13:36;;;;;;;31.20;27.20;;;12.60;99.90;;;;;;5094826;28;20679;-84
2022/09/25 04:16:13;;;;;;;31.17;28.00;;;12.60;99.90;;;;;;5095159;28;20267;-83
2022/09/25 04:18:41;;;;;;;30.80;27.83;;;12.60;99.90;;;;;;5095080;28;20173;-83
2022/09/25 04:21:09;;;;;;;24.03;21.47;;;12.60;99.90;;;;;;5094874;28;20224;-82
2022/09/25 04:23:37;;;;;;;30.90;27.73;;;12.60;99.90;;;;;;5096061;28;20714;-82
2022/09/25 04:26:03;;;;;;;47.80;43.93;;;12.60;99.90;;;;;;5099362;28;20207;-86
2022/09/25 04:28:32;;;;;;;78.70;72.90;;;12.70;99.90;;;;;;5120283;28;20228;-86
2022/09/25 04:30:59;;;;;;;106.60;99.13;;;12.70;99.90;;;;;;5107322;28;20227;-84
2022/09/25 04:36:10;;;;;;;110.33;103.27;;;12.60;99.90;;;;;;5097066;28;20172;-83
2022/09/25 04:38:36;;;;;;;78.47;73.17;;;12.60;99.90;;;;;;5097057;28;20181;-85
2022/09/25 04:41:01;;;;;;;61.90;57.07;;;12.60;99.90;;;;;;5094909;28;20208;-84
2022/09/25 04:43:34;;;;;;;28.93;24.33;;;12.60;99.90;;;;;;5095998;28;20268;-84
2022/09/25 04:46:06;;;;;;;28.17;18.97;;;12.60;99.90;;;;;;5095106;28;20673;-84
2022/09/25 04:48:33;;;;;;;27.83;18.83;;;12.60;99.90;;;;;;5095075;28;20540;-85
2022/09/25 04:50:59;;;;;;;28.77;18.90;;;12.60;99.90;;;;;;5095069;28;20193;-83
2022/09/25 04:53:28;;;;;;;29.43;19.77;;;12.60;99.90;;;;;;5094518;28;20240;-84
2022/09/25 04:55:54;;;;;;;32.27;19.80;;;12.60;99.90;;;;;;5094537;28;20248;-84
2022/09/25 04:58:21;;;;;;;35.73;19.47;;;12.60;99.90;;;;;;5095178;28;20649;-85
2022/09/25 05:00:47;;;;;;;37.53;21.17;;;12.60;99.90;;;;;;5095554;28;20201;-84
2022/09/25 05:03:13;;;;;;;35.10;20.20;;;12.60;99.90;;;;;;5093967;28;20209;-86
2022/09/25 05:05:38;;;;;;;34.70;20.63;;;12.60;99.90;;;;;;5093658;28;20205;-85
2022/09/25 05:08:04;;;;;;;33.97;21.03;;;12.60;99.90;;;;;;5092766;28;20211;-84
2022/09/25 05:10:33;;;;;;;38.67;25.43;;;12.60;99.90;;;;;;5092849;28;20295;-82
2022/09/25 05:13:01;;;;;;;28.30;22.20;;;12.60;99.90;;;;;;5092687;28;20181;-84
2022/09/25 05:15:30;;;;;;;33.37;25.17;;;12.70;99.90;;;;;;5093231;28;20174;-83
2022/09/25 05:18:11;;;;;;;33.33;24.10;;;12.60;99.90;;;;;;5093019;28;20186;-83
2022/09/25 05:20:37;;;;;;;34.63;25.67;;;12.70;99.90;;;;;;5095145;28;20208;-83
2022/09/25 05:23:03;;;;;;;32.40;29.00;;;12.60;99.90;;;;;;5112381;28;20200;-84
2022/09/25 05:25:30;;;;;;;38.40;32.00;;;12.60;99.90;;;;;;5103116;28;20211;-86
2022/09/25 05:27:57;;;;;;;43.63;35.77;;;12.60;99.90;;;;;;5100894;28;20180;-84
2022/09/25 05:30:25;;;;;;;31.53;24.07;;;12.60;99.90;;;;;;5096304;28;20197;-82
2022/09/25 05:32:51;;;;;;;30.50;19.83;;;12.60;99.90;;;;;;5106274;28;20165;-83
2022/09/25 05:35:21;;;;;;;29.53;18.37;;;12.60;99.90;;;;;;5117729;28;20201;-86
2022/09/25 05:37:47;;;;;;;51.57;46.57;;;12.60;99.90;;;;;;5109547;28;20180;-85
2022/09/25 05:40:15;;;;;;;52.67;47.73;;;12.60;99.90;;;;;;5098306;28;20750;-82
2022/09/25 05:42:45;;;;;;;49.83;45.57;;;12.60;99.90;;;;;;5113674;28;20193;-90
2022/09/25 05:45:11;;;;;;;33.10;28.90;;;12.60;99.90;;;;;;5096637;28;20664;-85
2022/09/25 05:47:41;;;;;;;37.93;34.10;;;12.60;99.90;;;;;;5094757;28;20199;-85
2022/09/25 05:50:09;;;;;;;52.37;48.27;;;12.60;99.90;;;;;;5094185;28;20701;-84
2022/09/25 05:52:35;;;;;;;52.93;48.43;;;12.60;99.90;;;;;;5092656;28;20187;-84
2022/09/25 05:55:02;;;;;;;68.17;63.07;;;12.60;99.90;;;;;;5093551;28;20188;-84
2022/09/25 05:57:33;;;;;;;58.90;54.10;;;12.60;99.90;;;;;;5094609;28;20181;-84
2022/09/25 05:59:59;;;;;;;53.80;49.50;;;12.60;99.90;;;;;;5093368;28;20283;-84
2022/09/25 06:02:24;;;;;;;30.33;27.37;;;12.70;99.90;;;;;;5093891;28;20199;-83
2022/09/25 06:04:50;;;;;;;20.93;16.43;;;12.70;99.90;;;;;;5092927;28;20181;-84
2022/09/25 06:07:16;;;;;;;23.40;17.67;;;12.70;99.90;;;;;;5094729;28;20687;-82
2022/09/25 06:09:42;;;;;;;21.93;17.30;;;12.60;99.90;;;;;;5099482;28;20211;-84
2022/09/25 06:12:11;;;;;;;22.77;18.87;;;12.70;99.90;;;;;;5097030;28;20161;-83
2022/09/25 06:14:37;;;;;;;19.50;17.40;;;12.70;99.90;;;;;;5097390;28;20208;-84
2022/09/25 06:17:03;;;;;;;20.97;17.57;;;12.70;99.90;;;;;;5097218;28;20169;-84
2022/09/25 06:19:29;;;;;;;20.67;17.70;;;12.70;99.90;;;;;;5098937;28;20201;-83
2022/09/25 06:22:05;;;;;;;20.13;18.03;;;12.80;99.90;;;;;;5097386;28;20177;-83
2022/09/25 06:24:31;;;;;;;19.30;17.17;;;12.90;99.90;;;;;;5098786;28;20180;-83
2022/09/25 06:26:56;;;;;;;18.83;16.80;;;12.90;99.90;;;;;;5097071;28;20581;-83
2022/09/25 06:29:22;;;;;;;20.83;18.77;;;13.00;99.90;;;;;;5099425;28;20177;-84
2022/09/25 06:31:49;;;;;;;23.73;21.43;;;13.00;99.90;;;;;;5097235;28;20369;-75
2022/09/25 06:34:15;;;;;;;20.73;18.77;;;13.00;99.90;;;;;;5093241;28;20177;-75
2022/09/25 06:36:41;;;;;;;17.43;15.73;;;13.10;99.90;;;;;;5093156;28;20237;-75
2022/09/25 06:39:07;;;;;;;48.47;45.23;;;13.10;99.90;;;;;;5094103;28;20610;-76
2022/09/25 06:41:33;;;;;;;72.83;67.87;;;13.20;99.90;;;;;;5093018;28;20291;-74
2022/09/25 06:44:00;;;;;;;99.97;94.37;;;13.30;99.90;;;;;;5093492;28;20193;-75
2022/09/25 06:46:26;;;;;;;130.00;122.63;;;13.30;99.90;;;;;;5093058;28;20208;-75
2022/09/25 06:48:53;;;;;;;128.90;121.83;;;13.30;99.90;;;;;;5093792;28;20173;-75
2022/09/25 06:51:20;;;;;;;123.43;116.33;;;13.30;99.90;;;;;;5093694;28;20250;-75
2022/09/25 06:53:46;;;;;;;130.13;122.93;;;13.30;99.90;;;;;;5093894;28;20181;-75
2022/09/25 06:56:11;;;;;;;70.97;66.73;;;13.40;99.90;;;;;;5095651;28;20526;-76
2022/09/25 06:58:38;;;;;;;99.43;93.90;;;13.50;99.90;;;;;;5092981;28;20181;-75
2022/09/25 07:01:09;;;;;;;124.60;117.67;;;13.60;99.90;;;;;;5094770;28;20263;-76
2022/09/25 07:03:44;;;;;;;130.60;123.27;;;13.60;99.90;;;;;;5093540;28;20187;-73
2022/09/25 07:06:25;;;;;;;53.53;50.27;;;13.80;99.90;;;;;;5092366;28;20280;-75
2022/09/25 07:08:51;;;;;;;14.80;13.50;;;13.70;99.90;;;;;;5092212;28;20283;-74
2022/09/25 07:11:20;;;;;;;15.57;14.23;;;13.70;99.90;;;;;;5093655;28;20735;-74
2022/09/25 07:13:48;;;;;;;18.23;16.53;;;13.70;99.90;;;;;;5091933;28;20312;-74
2022/09/25 07:16:17;;;;;;;18.60;17.20;;;13.70;99.90;;;;;;5097916;28;20177;-79
2022/09/25 07:18:43;;;;;;;22.20;20.40;;;13.70;99.90;;;;;;5106118;28;20268;-78
2022/09/25 07:21:13;;;;;;;25.47;23.70;;;13.70;99.90;;;;;;5108543;28;20201;-78
2022/09/25 07:23:40;;;;;;;24.73;22.93;;;13.70;99.90;;;;;;5112379;28;20202;-80
2022/09/25 07:26:08;;;;;;;16.57;15.27;;;13.70;99.90;;;;;;5109381;28;20213;-80
2022/09/25 07:28:35;;;;;;;20.10;18.50;;;13.80;99.90;;;;;;5107447;28;20177;-80
2022/09/25 07:31:17;;;;;;;25.83;24.03;;;13.90;99.90;;;;;;5105023;28;20193;-79
2022/09/25 07:33:44;;;;;;;29.83;27.77;;;14.00;99.90;;;;;;5110448;28;20184;-80
2022/09/25 07:36:10;;;;;;;46.47;43.37;;;14.10;99.90;;;;;;5107824;28;20593;-80
2022/09/25 07:38:38;;;;;;;49.23;46.27;;;14.10;99.90;;;;;;5107551;28;20191;-79
2022/09/25 07:41:05;;;;;;;39.90;37.20;;;14.10;99.90;;;;;;5103554;28;20197;-78
2022/09/25 07:43:33;;;;;;;26.40;24.40;;;14.20;99.90;;;;;;5101180;28;20215;-78
2022/09/25 07:45:59;;;;;;;67.40;63.30;;;14.30;99.90;;;;;;5097828;28;20264;-76
2022/09/25 07:48:29;;;;;;;147.90;139.73;;;14.40;99.90;;;;;;5092116;28;20180;-72
2022/09/25 07:50:59;;;;;;;118.03;111.57;;;14.50;99.90;;;;;;5092807;28;20204;-74
2022/09/25 07:53:24;;;;;;;84.60;79.90;;;14.60;99.90;;;;;;5091668;28;20177;-73
2022/09/25 07:55:50;;;;;;;71.53;67.40;;;14.60;99.90;;;;;;5091815;28;20698;-74
2022/09/25 07:58:18;;;;;;;72.90;68.83;;;14.70;99.90;;;;;;5091398;28;20272;-73
2022/09/25 08:00:44;;;;;;;84.17;79.50;;;14.70;99.90;;;;;;5092018;28;20201;-74
2022/09/25 08:03:11;;;;;;;79.27;74.57;;;14.80;99.90;;;;;;5091246;28;20173;-73
2022/09/25 08:05:37;;;;;;;54.80;51.67;;;14.70;99.90;;;;;;5090884;28;20295;-74
2022/09/25 08:08:03;;;;;;;39.13;36.70;;;14.70;99.90;;;;;;5091468;28;20204;-74
2022/09/25 08:10:30;;;;;;;29.20;27.07;;;14.60;99.90;;;;;;5093557;28;20632;-73
2022/09/25 08:12:57;;;;;;;33.13;31.00;;;14.60;99.90;;;;;;5092164;28;20583;-73
2022/09/25 08:15:22;;;;;;;45.10;42.40;;;14.60;99.90;;;;;;5093274;28;20188;-76
2022/09/25 08:17:48;;;;;;;42.57;40.07;;;14.60;99.90;;;;;;5093169;28;20916;-76
2022/09/25 08:20:14;;;;;;;54.37;51.07;;;14.70;99.90;;;;;;5090696;28;20193;-71
2022/09/25 08:22:40;;;;;;;64.17;60.33;;;14.80;99.90;;;;;;5092387;28;20532;-75
2022/09/25 08:25:06;;;;;;;26.87;25.00;;;14.80;99.90;;;;;;5092576;28;20220;-75
2022/09/25 08:27:39;;;;;;;18.30;16.90;;;14.90;99.90;;;;;;5090750;28;20185;-75
2022/09/25 08:30:08;;;;;;;14.87;13.67;;;14.90;99.90;;;;;;5092137;28;20291;-75
2022/09/25 08:32:34;;;;;;;13.27;12.00;;;15.00;99.90;;;;;;5090307;28;20173;-75
2022/09/25 08:35:00;;;;;;;12.60;11.60;;;15.10;99.90;;;;;;5092055;28;20183;-75
2022/09/25 08:37:26;;;;;;;13.90;12.87;;;15.30;99.90;;;;;;5091045;28;20177;-75
2022/09/25 08:39:53;;;;;;;28.97;27.10;;;15.40;99.90;;;;;;5084138;28;20737;-77
2022/09/25 08:42:34;;;;;;;67.37;63.50;;;15.40;99.90;;;;;;5084926;28;20268;-76
2022/09/25 08:50:41;;;;;;;44.03;41.47;;;15.80;99.90;;;;;;5084706;28;20198;-77
2022/09/25 08:53:22;;;;;;;50.00;47.07;;;15.90;99.90;;;;;;5073070;28;20166;-77
2022/09/25 08:58:41;;;;;;;80.20;75.90;;;16.40;99.90;;;;;;5071914;28;20189;-77
2022/09/25 09:01:31;;;;;;;18.17;16.80;;;16.40;99.90;;;;;;5070024;28;20209;-75
2022/09/25 09:04:28;;;;;;;13.63;12.60;;;16.50;99.90;;;;;;5076623;28;20200;-76
2022/09/25 09:07:02;;;;;;;28.67;26.83;;;16.70;99.90;;;;;;5089845;28;20212;-75
2022/09/25 09:09:38;;;;;;;37.40;35.30;;;16.70;99.90;;;;;;5088886;28;20759;-75
2022/09/25 09:12:15;;;;;;;40.07;37.67;;;16.60;99.90;;;;;;5091132;28;20600;-74
2022/09/25 09:14:48;;;;;;;38.40;36.20;;;16.70;99.90;;;;;;5091538;28;20176;-76
2022/09/25 09:17:18;;;;;;;37.30;34.90;;;16.70;99.90;;;;;;5091651;28;20185;-75
2022/09/25 09:19:49;;;;;;;28.73;26.90;;;16.80;99.90;;;;;;5089385;28;20200;-76
2022/09/25 09:22:25;;;;;;;18.57;17.30;;;17.00;99.90;;;;;;5090679;28;20181;-75
2022/09/25 09:24:59;;;;;;;13.30;12.30;;;17.20;99.90;;;;;;5091761;28;20203;-76
2022/09/25 09:27:46;;;;;;;11.60;10.60;;;17.40;99.90;;;;;;5091410;28;20260;-75
2022/09/25 09:30:34;;;;;;;16.93;15.87;;;17.60;99.90;;;;;;5090633;28;20287;-75
2022/09/25 09:33:28;;;;;;;17.83;16.57;;;17.50;99.90;;;;;;5087662;28;20177;-76
2022/09/25 09:36:15;;;;;;;36.57;34.40;;;17.50;99.90;;;;;;5070776;28;20287;-76
2022/09/25 09:39:24;;;;;;;27.07;25.23;;;17.40;99.90;;;;;;5070746;28;20185;-77
2022/09/25 09:42:38;;;;;;;18.50;17.20;;;17.30;99.90;;;;;;5069556;28;20252;-76
2022/09/25 09:45:24;;;;;;;24.57;22.73;;;17.10;99.90;;;;;;5060824;28;20189;-77
2022/09/25 09:48:14;;;;;;;22.77;21.10;;;17.00;99.90;;;;;;5069225;28;20215;-77
2022/09/25 09:50:42;;;;;;;14.53;12.97;;;17.30;99.90;;;;;;5089346;28;20680;-76
2022/09/25 09:53:34;;;;;;;51.80;48.90;;;17.50;99.90;;;;;;5089726;28;20180;-76
2022/09/25 09:56:08;;;;;;;55.57;52.57;;;17.90;99.90;;;;;;5091339;28;20287;-77
2022/09/25 09:58:54;;;;;;;35.60;33.30;;;18.10;99.90;;;;;;5090725;28;20703;-75
2022/09/25 10:01:23;;;;;;;18.40;17.13;;;18.10;99.90;;;;;;5074730;28;20201;-75
2022/09/25 10:04:18;;;;;;;16.67;15.47;;;18.30;99.90;;;;;;5091984;28;20233;-77
2022/09/25 10:06:49;;;;;;;16.83;15.53;;;18.40;99.90;;;;;;5091353;28;20259;-76
2022/09/25 10:09:16;;;;;;;12.00;11.20;;;18.30;99.90;;;;;;5088980;28;20180;-75
2022/09/25 10:11:44;;;;;;;13.17;11.97;;;18.10;99.90;;;;;;5103048;22;20859;-77
2022/09/25 10:14:17;;;;;;;11.23;10.13;;;18.00;99.90;;;;;;5071323;28;20190;-77
2022/09/25 10:16:43;;;;;;;11.80;10.80;;;17.90;99.90;;;;;;5070541;28;20529;-77
2022/09/25 10:19:18;;;;;;;11.67;10.77;;;17.60;99.90;;;;;;5052140;28;20182;-77
2022/09/25 10:21:53;;;;;;;13.67;12.53;;;17.30;99.90;;;;;;5077336;28;20196;-77
2022/09/25 10:25:00;;;;;;;14.63;13.20;;;17.10;99.90;;;;;;5090548;28;20177;-76
2022/09/25 10:27:48;;;;;;;10.90;10.00;;;16.90;99.90;;;;;;5070458;28;20208;-76
2022/09/25 10:30:18;;;;;;;11.63;9.47;;;16.90;99.90;;;;;;5088918;28;20192;-77
2022/09/25 10:32:59;;;;;;;14.00;12.40;;;17.10;99.90;;;;;;5071214;28;20739;-77
2022/09/25 10:35:38;;;;;;;15.43;13.90;;;17.20;99.90;;;;;;5089853;28;20635;-74
2022/09/25 10:38:15;;;;;;;15.00;13.57;;;17.30;99.90;;;;;;5085929;28;20181;-75
2022/09/25 10:40:45;;;;;;;15.87;14.47;;;17.40;99.90;;;;;;5081896;28;20196;-77
2022/09/25 10:43:11;;;;;;;13.33;12.23;;;17.40;99.90;;;;;;5070770;28;20196;-76
2022/09/25 10:45:39;;;;;;;15.20;13.90;;;17.20;99.90;;;;;;5090966;28;20221;-76
2022/09/25 10:51:20;;;;;;;12.60;11.00;;;16.80;99.90;;;;;;5073923;28;20997;-77
2022/09/25 10:53:51;;;;;;;11.73;10.63;;;16.60;99.90;;;;;;5090137;28;20178;-74
2022/09/25 10:56:34;;;;;;;27.70;25.70;;;16.30;99.90;;;;;;5092569;28;20192;-74
2022/09/25 10:59:02;;;;;;;78.53;74.33;;;16.20;99.90;;;;;;5093072;28;20215;-75
2022/09/25 11:01:40;;;;;;;126.57;119.97;;;16.10;99.90;;;;;;5087733;28;20688;-74
2022/09/25 11:04:15;;;;;;;124.43;117.37;;;16.20;99.90;;;;;;5092789;28;20272;-76
2022/09/25 11:06:51;;;;;;;117.50;110.93;;;16.00;99.90;;;;;;5091696;28;20314;-75
2022/09/25 11:09:26;;;;;;;126.50;119.80;;;15.90;99.90;;;;;;5093544;28;20184;-74
2022/09/25 11:12:05;;;;;;;59.67;56.00;;;15.90;99.90;;;;;;5074819;28;20761;-75
2022/09/25 11:14:34;;;;;;;24.43;22.53;;;15.80;99.90;;;;;;5093646;28;20271;-75
2022/09/25 11:17:04;;;;;;;33.33;31.10;;;15.70;99.90;;;;;;5075120;28;20187;-74
2022/09/25 11:19:35;;;;;;;18.03;16.13;;;15.70;99.90;;;;;;5093008;28;20188;-73
2022/09/25 11:22:24;;;;;;;16.20;14.50;;;15.60;99.90;;;;;;5092842;28;20272;-75
2022/09/25 11:24:56;;;;;;;16.17;14.27;;;15.60;99.90;;;;;;5092903;28;20243;-74
2022/09/25 11:27:43;;;;;;;17.37;15.87;;;15.60;99.90;;;;;;5092905;28;20184;-75
2022/09/25 11:30:16;;;;;;;23.07;21.47;;;15.50;99.90;;;;;;5093249;28;20242;-72
2022/09/25 11:33:16;;;;;;;33.10;29.83;;;15.50;99.90;;;;;;5078307;28;20696;-71
2022/09/25 11:35:55;;;;;;;24.07;22.10;;;15.50;99.90;;;;;;5072823;28;20203;-71
2022/09/25 11:42:06;;;;;;;17.20;15.50;;;15.90;99.90;;;;;;5074384;28;20193;-71
2022/09/25 11:44:53;;;;;;;13.97;12.67;;;16.10;99.90;;;;;;5092635;28;20188;-71
2022/09/25 11:47:31;;;;;;;66.07;62.40;;;16.40;99.90;;;;;;5074016;28;20193;-73
2022/09/25 11:50:00;;;;;;;94.60;89.30;;;16.60;99.90;;;;;;5081516;28;20226;-72
2022/09/25 11:52:41;;;;;;;96.63;91.33;;;16.70;99.90;;;;;;5101815;28;20230;-73
2022/09/25 11:55:18;;;;;;;57.30;53.70;;;16.80;99.90;;;;;;5074533;28;20291;-72
2022/09/25 11:58:08;;;;;;;53.23;50.03;;;16.70;99.90;;;;;;5092148;28;20181;-71
2022/09/25 12:01:05;;;;;;;51.37;48.27;;;16.70;99.90;;;;;;5050806;28;20241;-73
2022/09/25 12:03:46;;;;;;;62.27;58.77;;;16.60;99.90;;;;;;5091868;28;20231;-72
2022/09/25 12:06:43;;;;;;;87.00;82.20;;;16.40;99.90;;;;;;5091950;28;20231;-71
2022/09/25 12:09:30;;;;;;;117.20;110.93;;;16.20;99.90;;;;;;5091810;28;20210;-71
2022/09/25 12:12:11;;;;;;;64.93;60.97;;;16.00;99.90;;;;;;5091264;28;20701;-71
2022/09/25 12:14:51;;;;;;;77.33;72.83;;;16.00;99.90;;;;;;5092073;28;20192;-71
2022/09/25 12:17:44;;;;;;;33.93;31.57;;;16.10;99.90;;;;;;5073859;28;20286;-74
2022/09/25 12:20:16;;;;;;;54.93;51.43;;;16.20;99.90;;;;;;5100897;28;20177;-74
2022/09/25 12:22:54;;;;;;;41.47;38.47;;;16.20;99.90;;;;;;5113733;28;20205;-75
2022/09/25 12:25:36;;;;;;;86.60;81.60;;;16.20;99.90;;;;;;5093048;28;20200;-73
2022/09/25 12:28:02;;;;;;;105.13;99.13;;;16.30;99.90;;;;;;5091693;28;20234;-75
2022/09/25 12:30:44;;;;;;;77.43;72.80;;;16.50;99.90;;;;;;5091920;28;20169;-73
2022/09/25 12:33:27;;;;;;;72.57;68.33;;;16.60;99.90;;;;;;5073594;28;20196;-73
2022/09/25 12:35:59;;;;;;;31.90;29.73;;;16.80;99.90;;;;;;5092494;28;20188;-73
2022/09/25 12:38:37;;;;;;;17.23;14.70;;;17.20;99.90;;;;;;5090747;28;20191;-72
2022/09/25 12:41:10;;;;;;;17.63;14.80;;;17.30;99.90;;;;;;5091932;28;20699;-72
2022/09/25 12:44:17;;;;;;;17.70;16.03;;;17.40;99.90;;;;;;5085525;28;20181;-75
2022/09/25 12:47:00;;;;;;;16.83;15.10;;;17.70;99.90;;;;;;4997222;28;20294;-75
2022/09/25 12:49:36;;;;;;;17.60;16.07;;;17.80;99.90;;;;;;5064264;28;20662;-76
2022/09/25 12:52:19;;;;;;;18.53;16.80;;;17.90;99.90;;;;;;5076551;28;20211;-76
2022/09/25 12:55:12;;;;;;;18.93;17.23;;;17.80;99.90;;;;;;5092224;28;20181;-76
2022/09/25 12:57:53;;;;;;;20.40;18.37;;;17.60;99.90;;;;;;5091469;28;20232;-76
2022/09/25 13:00:26;;;;;;;17.33;14.93;;;17.60;99.90;;;;;;5073647;28;20649;-75
2022/09/25 13:03:21;;;;;;;17.57;15.20;;;17.90;99.90;;;;;;5073070;28;20201;-76
2022/09/25 13:06:10;;;;;;;19.17;17.33;;;18.60;99.90;;;;;;5090900;28;20235;-74
2022/09/25 13:08:58;;;;;;;19.23;17.57;;;19.00;99.90;;;;;;5090552;28;20181;-72
2022/09/25 13:11:37;;;;;;;20.83;18.07;;;19.30;99.90;;;;;;5106347;28;20219;-73
2022/09/25 13:14:19;;;;;;;18.30;13.17;;;19.60;99.90;;;;;;5075809;28;20182;-73
2022/09/25 13:16:47;;;;;;;17.87;16.20;;;19.40;99.90;;;;;;5070612;28;20213;-74
2022/09/25 13:19:29;;;;;;;17.20;15.43;;;19.30;99.90;;;;;;5069937;28;20185;-73